sensor_id;sensor_type;location;lat;lon;timestamp;pressure;altitude;pressure_sealevel;temperature;humidity
5380;BME280;2713;42.680;23.310;2023-02-18T00:02:10;95819.34;;;8.81;48.20
5380;BME280;2713;42.680;23.310;2023-02-18T00:04:37;95819.13;;;8.75;47.91
5380;BME280;2713;42.680;23.310;2023-02-18T00:07:03;95817.25;;;8.85;48.13
5380;BME280;2713;42.680;23.310;2023-02-18T00:09:30;95809.97;;;8.62;48.96
5380;BME280;2713;42.680;23.310;2023-02-18T00:11:58;95821.06;;;8.73;48.65
5380;BME280;2713;42.680;23.310;2023-02-18T00:14:26;95812.91;;;8.68;48.46
5380;BME280;2713;42.680;23.310;2023-02-18T00:16:53;95807.28;;;8.54;48.13
5380;BME280;2713;42.680;23.310;2023-02-18T00:19:20;95804.31;;;8.49;48.28
5380;BME280;2713;42.680;23.310;2023-02-18T00:21:47;95802.63;;;8.58;48.67
5380;BME280;2713;42.680;23.310;2023-02-18T00:24:15;95800.56;;;8.44;49.17
5380;BME280;2713;42.680;23.310;2023-02-18T00:26:42;95783.78;;;8.21;49.29
5380;BME280;2713;42.680;23.310;2023-02-18T00:29:10;95794.81;;;8.23;49.29
5380;BME280;2713;42.680;23.310;2023-02-18T00:31:38;95772.75;;;8.28;49.40
5380;BME280;2713;42.680;23.310;2023-02-18T00:34:06;95775.59;;;8.25;49.81
5380;BME280;2713;42.680;23.310;2023-02-18T00:36:33;95781.03;;;8.32;49.57
5380;BME280;2713;42.680;23.310;2023-02-18T00:39:03;95779.59;;;8.37;48.88
5380;BME280;2713;42.680;23.310;2023-02-18T00:41:33;95771.97;;;8.53;48.93
5380;BME280;2713;42.680;23.310;2023-02-18T00:44:00;95761.09;;;8.50;48.71
5380;BME280;2713;42.680;23.310;2023-02-18T00:46:28;95768.78;;;8.24;49.88
5380;BME280;2713;42.680;23.310;2023-02-18T00:48:55;95776.63;;;8.32;49.34
5380;BME280;2713;42.680;23.310;2023-02-18T00:51:22;95769.06;;;8.21;49.99
5380;BME280;2713;42.680;23.310;2023-02-18T00:53:50;95774.09;;;8.23;49.47
5380;BME280;2713;42.680;23.310;2023-02-18T00:56:17;95765.41;;;8.41;48.78
5380;BME280;2713;42.680;23.310;2023-02-18T00:58:44;95764.81;;;8.47;49.31
5380;BME280;2713;42.680;23.310;2023-02-18T01:01:12;95780.13;;;8.41;48.99
5380;BME280;2713;42.680;23.310;2023-02-18T01:03:42;95763.47;;;8.43;49.25
5380;BME280;2713;42.680;23.310;2023-02-18T01:06:10;95766.53;;;8.39;49.23
5380;BME280;2713;42.680;23.310;2023-02-18T01:08:38;95764.19;;;8.18;49.33
5380;BME280;2713;42.680;23.310;2023-02-18T01:11:06;95770.72;;;7.95;50.55
5380;BME280;2713;42.680;23.310;2023-02-18T01:13:34;95762.84;;;7.96;50.25
5380;BME280;2713;42.680;23.310;2023-02-18T01:16:01;95772.78;;;7.74;51.00
5380;BME280;2713;42.680;23.310;2023-02-18T01:18:29;95771.13;;;8.00;50.03
5380;BME280;2713;42.680;23.310;2023-02-18T01:20:58;95756.41;;;8.00;49.85
5380;BME280;2713;42.680;23.310;2023-02-18T01:23:25;95755.59;;;8.00;50.02
5380;BME280;2713;42.680;23.310;2023-02-18T01:25:52;95750.25;;;8.01;50.26
5380;BME280;2713;42.680;23.310;2023-02-18T01:28:19;95766.25;;;7.97;50.25
5380;BME280;2713;42.680;23.310;2023-02-18T01:30:50;95756.94;;;8.04;50.09
5380;BME280;2713;42.680;23.310;2023-02-18T01:33:18;95761.66;;;7.91;50.44
5380;BME280;2713;42.680;23.310;2023-02-18T01:35:45;95767.53;;;7.83;50.08
5380;BME280;2713;42.680;23.310;2023-02-18T01:38:13;95759.72;;;7.93;50.37
5380;BME280;2713;42.680;23.310;2023-02-18T01:40:46;95747.84;;;7.73;50.83
5380;BME280;2713;42.680;23.310;2023-02-18T01:43:14;95769.59;;;7.80;50.60
5380;BME280;2713;42.680;23.310;2023-02-18T01:45:56;95771.13;;;8.00;50.06
5380;BME280;2713;42.680;23.310;2023-02-18T01:48:26;95764.81;;;8.02;49.88
5380;BME280;2713;42.680;23.310;2023-02-18T01:50:59;95770.59;;;7.96;49.95
5380;BME280;2713;42.680;23.310;2023-02-18T01:53:32;95769.66;;;7.70;51.40
5380;BME280;2713;42.680;23.310;2023-02-18T01:56:03;95774.59;;;7.63;50.73
5380;BME280;2713;42.680;23.310;2023-02-18T01:58:32;95789.19;;;7.82;50.73
5380;BME280;2713;42.680;23.310;2023-02-18T02:01:00;95773.53;;;7.84;50.07
5380;BME280;2713;42.680;23.310;2023-02-18T02:03:27;95781.06;;;7.77;50.69
5380;BME280;2713;42.680;23.310;2023-02-18T02:05:54;95776.41;;;7.81;50.97
5380;BME280;2713;42.680;23.310;2023-02-18T02:08:21;95769.44;;;7.81;50.49
5380;BME280;2713;42.680;23.310;2023-02-18T02:11:02;95766.72;;;7.83;50.47
5380;BME280;2713;42.680;23.310;2023-02-18T02:13:41;95770.72;;;7.95;49.85
5380;BME280;2713;42.680;23.310;2023-02-18T02:16:18;95769.19;;;8.02;49.87
5380;BME280;2713;42.680;23.310;2023-02-18T02:18:56;95773.06;;;7.98;50.20
5380;BME280;2713;42.680;23.310;2023-02-18T02:21:52;95763.38;;;7.73;50.80
5380;BME280;2713;42.680;23.310;2023-02-18T02:27:20;95774.06;;;7.60;51.00
5380;BME280;2713;42.680;23.310;2023-02-18T02:36:22;95760.75;;;7.55;50.53
5380;BME280;2713;42.680;23.310;2023-02-18T02:38:55;95756.44;;;7.73;50.97
5380;BME280;2713;42.680;23.310;2023-02-18T02:41:38;95746.59;;;7.77;50.62
5380;BME280;2713;42.680;23.310;2023-02-18T02:44:19;95743.25;;;7.67;50.69
5380;BME280;2713;42.680;23.310;2023-02-18T02:46:47;95738.38;;;7.63;50.71
5380;BME280;2713;42.680;23.310;2023-02-18T02:49:27;95745.41;;;7.44;51.67
5380;BME280;2713;42.680;23.310;2023-02-18T02:52:03;95739.47;;;7.61;51.13
5380;BME280;2713;42.680;23.310;2023-02-18T02:54:32;95754.91;;;7.53;51.68
5380;BME280;2713;42.680;23.310;2023-02-18T02:57:08;95747.28;;;7.51;51.32
5380;BME280;2713;42.680;23.310;2023-02-18T02:59:42;95754.66;;;7.46;51.46
5380;BME280;2713;42.680;23.310;2023-02-18T03:02:21;95765.31;;;7.34;51.35
5380;BME280;2713;42.680;23.310;2023-02-18T03:05:07;95773.72;;;7.45;51.75
5380;BME280;2713;42.680;23.310;2023-02-18T03:07:49;95773.03;;;7.43;51.62
5380;BME280;2713;42.680;23.310;2023-02-18T03:10:31;95761.28;;;7.58;51.31
5380;BME280;2713;42.680;23.310;2023-02-18T03:13:08;95766.72;;;7.55;51.52
5380;BME280;2713;42.680;23.310;2023-02-18T03:15:42;95755.16;;;7.59;51.10
5380;BME280;2713;42.680;23.310;2023-02-18T03:18:19;95760.50;;;7.48;51.22
5380;BME280;2713;42.680;23.310;2023-02-18T03:20:52;95750.91;;;7.58;51.81
5380;BME280;2713;42.680;23.310;2023-02-18T03:23:26;95774.16;;;7.68;51.45
5380;BME280;2713;42.680;23.310;2023-02-18T03:25:54;95787.09;;;7.68;50.92
5380;BME280;2713;42.680;23.310;2023-02-18T03:28:23;95788.56;;;7.43;51.36
5380;BME280;2713;42.680;23.310;2023-02-18T03:30:56;95801.97;;;7.29;51.97
5380;BME280;2713;42.680;23.310;2023-02-18T03:33:27;95803.44;;;7.32;52.04
5380;BME280;2713;42.680;23.310;2023-02-18T03:35:56;95805.22;;;7.31;52.67
5380;BME280;2713;42.680;23.310;2023-02-18T03:38:28;95810.78;;;7.36;52.39
5380;BME280;2713;42.680;23.310;2023-02-18T03:40:57;95806.75;;;7.14;52.42
5380;BME280;2713;42.680;23.310;2023-02-18T03:43:24;95793.84;;;6.95;52.82
5380;BME280;2713;42.680;23.310;2023-02-18T03:45:52;95815.09;;;7.08;52.95
5380;BME280;2713;42.680;23.310;2023-02-18T03:48:20;95810.28;;;7.13;53.22
5380;BME280;2713;42.680;23.310;2023-02-18T03:50:46;95817.22;;;7.13;52.74
5380;BME280;2713;42.680;23.310;2023-02-18T03:53:13;95818.44;;;7.09;53.12
5380;BME280;2713;42.680;23.310;2023-02-18T03:55:41;95815.22;;;6.97;52.78
5380;BME280;2713;42.680;23.310;2023-02-18T03:58:08;95831.97;;;6.93;53.55
5380;BME280;2713;42.680;23.310;2023-02-18T04:00:35;95821.72;;;7.11;53.66
5380;BME280;2713;42.680;23.310;2023-02-18T04:03:02;95811.53;;;7.00;53.02
5380;BME280;2713;42.680;23.310;2023-02-18T04:05:29;95809.38;;;6.86;53.48
5380;BME280;2713;42.680;23.310;2023-02-18T04:07:56;95803.69;;;6.82;53.89
5380;BME280;2713;42.680;23.310;2023-02-18T04:10:22;95803.81;;;6.90;53.87
5380;BME280;2713;42.680;23.310;2023-02-18T04:12:51;95794.81;;;7.04;53.14
5380;BME280;2713;42.680;23.310;2023-02-18T04:15:17;95801.19;;;7.09;52.45
5380;BME280;2713;42.680;23.310;2023-02-18T04:17:44;95796.53;;;7.13;52.75
5380;BME280;2713;42.680;23.310;2023-02-18T04:20:11;95799.84;;;6.96;53.43
5380;BME280;2713;42.680;23.310;2023-02-18T04:22:38;95783.34;;;6.50;54.05
5380;BME280;2713;42.680;23.310;2023-02-18T04:25:06;95788.19;;;6.44;55.13
5380;BME280;2713;42.680;23.310;2023-02-18T04:27:33;95782.78;;;6.47;54.68
5380;BME280;2713;42.680;23.310;2023-02-18T04:30:02;95774.03;;;6.86;54.30
5380;BME280;2713;42.680;23.310;2023-02-18T04:32:29;95779.59;;;6.82;54.00
5380;BME280;2713;42.680;23.310;2023-02-18T04:34:55;95778.81;;;6.81;54.24
5380;BME280;2713;42.680;23.310;2023-02-18T04:37:22;95779.31;;;7.04;53.84
5380;BME280;2713;42.680;23.310;2023-02-18T04:39:49;95772.38;;;7.04;53.58
5380;BME280;2713;42.680;23.310;2023-02-18T04:42:16;95788.00;;;7.03;52.77
5380;BME280;2713;42.680;23.310;2023-02-18T04:44:43;95781.38;;;6.91;53.41
5380;BME280;2713;42.680;23.310;2023-02-18T04:47:11;95775.38;;;6.90;53.32
5380;BME280;2713;42.680;23.310;2023-02-18T04:49:38;95789.22;;;7.08;53.07
5380;BME280;2713;42.680;23.310;2023-02-18T04:52:04;95782.31;;;6.90;53.31
5380;BME280;2713;42.680;23.310;2023-02-18T04:54:31;95786.50;;;7.10;53.08
5380;BME280;2713;42.680;23.310;2023-02-18T04:56:58;95802.13;;;7.18;52.86
5380;BME280;2713;42.680;23.310;2023-02-18T04:59:25;95792.38;;;6.93;53.65
5380;BME280;2713;42.680;23.310;2023-02-18T05:01:52;95811.00;;;6.96;53.63
5380;BME280;2713;42.680;23.310;2023-02-18T05:04:21;95798.38;;;6.84;53.14
5380;BME280;2713;42.680;23.310;2023-02-18T05:06:47;95803.13;;;6.98;53.84
5380;BME280;2713;42.680;23.310;2023-02-18T05:09:14;95815.50;;;7.04;52.95
5380;BME280;2713;42.680;23.310;2023-02-18T05:11:42;95805.78;;;7.25;52.25
5380;BME280;2713;42.680;23.310;2023-02-18T05:14:09;95805.50;;;7.28;52.86
5380;BME280;2713;42.680;23.310;2023-02-18T05:16:36;95805.00;;;7.15;53.29
5380;BME280;2713;42.680;23.310;2023-02-18T05:19:03;95793.50;;;7.27;53.08
5380;BME280;2713;42.680;23.310;2023-02-18T05:21:32;95810.31;;;7.04;52.68
5380;BME280;2713;42.680;23.310;2023-02-18T05:23:59;95797.13;;;7.07;53.06
5380;BME280;2713;42.680;23.310;2023-02-18T05:26:25;95790.47;;;7.04;53.35
5380;BME280;2713;42.680;23.310;2023-02-18T05:28:52;95782.34;;;6.80;54.35
5380;BME280;2713;42.680;23.310;2023-02-18T05:31:19;95791.38;;;7.13;53.08
5380;BME280;2713;42.680;23.310;2023-02-18T05:33:46;95789.63;;;7.04;53.44
5380;BME280;2713;42.680;23.310;2023-02-18T05:36:13;95793.69;;;7.16;53.08
5380;BME280;2713;42.680;23.310;2023-02-18T05:38:41;95783.34;;;7.16;52.80
5380;BME280;2713;42.680;23.310;2023-02-18T05:41:07;95783.72;;;7.31;52.58
5380;BME280;2713;42.680;23.310;2023-02-18T05:43:34;95782.44;;;7.44;52.27
5380;BME280;2713;42.680;23.310;2023-02-18T05:46:22;95796.34;;;7.34;52.82
5380;BME280;2713;42.680;23.310;2023-02-18T05:48:48;95792.06;;;7.15;53.07
5380;BME280;2713;42.680;23.310;2023-02-18T05:51:15;95788.66;;;7.14;53.02
5380;BME280;2713;42.680;23.310;2023-02-18T05:53:43;95801.81;;;7.31;52.53
5380;BME280;2713;42.680;23.310;2023-02-18T05:56:10;95810.59;;;7.47;52.78
5380;BME280;2713;42.680;23.310;2023-02-18T05:58:37;95811.47;;;7.65;51.22
5380;BME280;2713;42.680;23.310;2023-02-18T06:01:04;95825.94;;;7.58;52.20
5380;BME280;2713;42.680;23.310;2023-02-18T06:03:32;95816.59;;;7.48;52.31
5380;BME280;2713;42.680;23.310;2023-02-18T06:05:59;95819.13;;;7.57;52.12
5380;BME280;2713;42.680;23.310;2023-02-18T06:08:25;95819.72;;;7.51;52.04
5380;BME280;2713;42.680;23.310;2023-02-18T06:10:54;95807.00;;;7.58;51.90
5380;BME280;2713;42.680;23.310;2023-02-18T06:13:20;95808.03;;;7.75;52.33
5380;BME280;2713;42.680;23.310;2023-02-18T06:15:49;95810.91;;;7.72;51.98
5380;BME280;2713;42.680;23.310;2023-02-18T06:18:16;95809.66;;;7.76;51.17
5380;BME280;2713;42.680;23.310;2023-02-18T06:20:43;95795.56;;;7.88;50.94
5380;BME280;2713;42.680;23.310;2023-02-18T06:23:09;95806.03;;;7.96;51.41
5380;BME280;2713;42.680;23.310;2023-02-18T06:25:36;95806.69;;;7.98;51.68
5380;BME280;2713;42.680;23.310;2023-02-18T06:28:04;95797.19;;;7.89;51.13
5380;BME280;2713;42.680;23.310;2023-02-18T06:30:31;95789.44;;;7.89;51.39
5380;BME280;2713;42.680;23.310;2023-02-18T06:32:58;95785.31;;;7.96;51.20
5380;BME280;2713;42.680;23.310;2023-02-18T06:35:28;95791.88;;;7.90;51.50
5380;BME280;2713;42.680;23.310;2023-02-18T06:37:55;95795.03;;;8.11;51.42
5380;BME280;2713;42.680;23.310;2023-02-18T06:40:22;95788.81;;;8.22;50.92
5380;BME280;2713;42.680;23.310;2023-02-18T06:42:49;95788.97;;;8.21;51.07
5380;BME280;2713;42.680;23.310;2023-02-18T06:45:17;95797.47;;;8.13;50.76
5380;BME280;2713;42.680;23.310;2023-02-18T06:47:44;95787.38;;;8.37;50.28
5380;BME280;2713;42.680;23.310;2023-02-18T06:50:11;95782.69;;;8.23;50.67
5380;BME280;2713;42.680;23.310;2023-02-18T06:52:37;95784.56;;;8.31;50.65
5380;BME280;2713;42.680;23.310;2023-02-18T06:55:05;95796.53;;;8.49;49.77
5380;BME280;2713;42.680;23.310;2023-02-18T06:57:32;95803.22;;;8.52;50.04
5380;BME280;2713;42.680;23.310;2023-02-18T06:59:59;95799.09;;;8.59;50.79
5380;BME280;2713;42.680;23.310;2023-02-18T07:02:27;95794.34;;;8.54;50.02
5380;BME280;2713;42.680;23.310;2023-02-18T07:04:54;95793.09;;;8.58;49.68
5380;BME280;2713;42.680;23.310;2023-02-18T07:07:21;95785.63;;;8.55;49.47
5380;BME280;2713;42.680;23.310;2023-02-18T07:09:47;95789.81;;;8.74;49.17
5380;BME280;2713;42.680;23.310;2023-02-18T07:12:14;95792.69;;;8.71;49.85
5380;BME280;2713;42.680;23.310;2023-02-18T07:14:41;95774.47;;;8.63;49.49
5380;BME280;2713;42.680;23.310;2023-02-18T07:17:08;95779.72;;;8.89;48.97
5380;BME280;2713;42.680;23.310;2023-02-18T07:19:36;95782.19;;;8.73;48.64
5380;BME280;2713;42.680;23.310;2023-02-18T07:22:03;95764.09;;;8.81;48.63
5380;BME280;2713;42.680;23.310;2023-02-18T07:24:29;95776.16;;;8.90;48.95
5380;BME280;2713;42.680;23.310;2023-02-18T07:26:56;95775.97;;;8.83;48.63
5380;BME280;2713;42.680;23.310;2023-02-18T07:29:23;95765.78;;;8.90;48.58
5380;BME280;2713;42.680;23.310;2023-02-18T07:31:50;95776.47;;;8.87;48.18
5380;BME280;2713;42.680;23.310;2023-02-18T07:34:17;95763.53;;;8.95;48.32
5380;BME280;2713;42.680;23.310;2023-02-18T07:36:45;95783.75;;;8.65;48.83
5380;BME280;2713;42.680;23.310;2023-02-18T07:39:12;95794.38;;;8.80;48.30
5380;BME280;2713;42.680;23.310;2023-02-18T07:41:39;95795.63;;;8.94;47.49
5380;BME280;2713;42.680;23.310;2023-02-18T07:44:13;95797.94;;;8.79;48.46
5380;BME280;2713;42.680;23.310;2023-02-18T07:46:40;95793.81;;;8.33;49.17
5380;BME280;2713;42.680;23.310;2023-02-18T07:49:08;95801.69;;;8.59;49.90
5380;BME280;2713;42.680;23.310;2023-02-18T07:51:35;95797.06;;;8.53;49.69
5380;BME280;2713;42.680;23.310;2023-02-18T07:54:04;95812.28;;;8.91;48.44
5380;BME280;2713;42.680;23.310;2023-02-18T07:56:31;95806.09;;;9.28;48.45
5380;BME280;2713;42.680;23.310;2023-02-18T07:58:58;95807.78;;;9.19;48.22
5380;BME280;2713;42.680;23.310;2023-02-18T08:01:24;95802.75;;;9.43;47.44
5380;BME280;2713;42.680;23.310;2023-02-18T08:03:51;95792.50;;;9.67;46.94
5380;BME280;2713;42.680;23.310;2023-02-18T08:06:20;95796.88;;;9.67;46.77
5380;BME280;2713;42.680;23.310;2023-02-18T08:08:47;95799.06;;;9.88;46.45
5380;BME280;2713;42.680;23.310;2023-02-18T08:11:15;95792.31;;;10.11;45.83
5380;BME280;2713;42.680;23.310;2023-02-18T08:13:42;95792.09;;;10.30;45.79
5380;BME280;2713;42.680;23.310;2023-02-18T08:16:09;95786.09;;;10.46;45.19
5380;BME280;2713;42.680;23.310;2023-02-18T08:18:36;95785.00;;;10.64;45.08
5380;BME280;2713;42.680;23.310;2023-02-18T08:21:03;95782.69;;;11.10;44.16
5380;BME280;2713;42.680;23.310;2023-02-18T08:23:30;95769.22;;;11.61;42.99
5380;BME280;2713;42.680;23.310;2023-02-18T08:25:56;95773.31;;;11.56;43.30
5380;BME280;2713;42.680;23.310;2023-02-18T08:28:25;95772.56;;;11.39;43.60
5380;BME280;2713;42.680;23.310;2023-02-18T08:30:53;95760.84;;;11.35;43.92
5380;BME280;2713;42.680;23.310;2023-02-18T08:33:21;95769.00;;;11.32;43.78
5380;BME280;2713;42.680;23.310;2023-02-18T08:35:50;95760.38;;;11.32;43.50
5380;BME280;2713;42.680;23.310;2023-02-18T08:38:17;95766.28;;;11.09;44.05
5380;BME280;2713;42.680;23.310;2023-02-18T08:40:44;95764.66;;;11.00;44.56
5380;BME280;2713;42.680;23.310;2023-02-18T08:43:12;95753.75;;;11.05;44.44
5380;BME280;2713;42.680;23.310;2023-02-18T08:45:41;95761.09;;;11.01;44.86
5380;BME280;2713;42.680;23.310;2023-02-18T08:48:09;95759.13;;;10.87;44.64
5380;BME280;2713;42.680;23.310;2023-02-18T08:50:36;95751.66;;;10.52;45.89
5380;BME280;2713;42.680;23.310;2023-02-18T08:53:03;95758.81;;;10.34;45.92
5380;BME280;2713;42.680;23.310;2023-02-18T08:55:32;95769.69;;;10.69;45.55
5380;BME280;2713;42.680;23.310;2023-02-18T08:57:59;95772.78;;;10.49;45.87
5380;BME280;2713;42.680;23.310;2023-02-18T09:00:26;95775.88;;;11.09;51.56
5380;BME280;2713;42.680;23.310;2023-02-18T09:02:55;95770.63;;;11.33;45.51
5380;BME280;2713;42.680;23.310;2023-02-18T09:05:21;95766.19;;;11.50;44.34
5380;BME280;2713;42.680;23.310;2023-02-18T09:07:48;95761.09;;;11.73;46.07
5380;BME280;2713;42.680;23.310;2023-02-18T09:10:15;95760.75;;;11.67;44.17
5380;BME280;2713;42.680;23.310;2023-02-18T09:12:42;95767.03;;;11.89;43.17
5380;BME280;2713;42.680;23.310;2023-02-18T09:15:09;95763.47;;;11.82;43.57
5380;BME280;2713;42.680;23.310;2023-02-18T09:17:36;95761.34;;;11.86;43.25
5380;BME280;2713;42.680;23.310;2023-02-18T09:20:06;95763.28;;;11.92;43.20
5380;BME280;2713;42.680;23.310;2023-02-18T09:22:33;95773.69;;;11.92;43.04
5380;BME280;2713;42.680;23.310;2023-02-18T09:24:59;95765.25;;;13.26;62.40
5380;BME280;2713;42.680;23.310;2023-02-18T09:27:26;95762.91;;;13.16;47.91
5380;BME280;2713;42.680;23.310;2023-02-18T09:29:53;95748.50;;;12.60;42.38
5380;BME280;2713;42.680;23.310;2023-02-18T09:32:20;95742.06;;;12.56;42.16
5380;BME280;2713;42.680;23.310;2023-02-18T09:34:47;95739.81;;;12.68;41.71
5380;BME280;2713;42.680;23.310;2023-02-18T09:37:15;95738.13;;;12.98;41.88
5380;BME280;2713;42.680;23.310;2023-02-18T09:39:42;95732.22;;;13.18;41.12
5380;BME280;2713;42.680;23.310;2023-02-18T09:42:13;95732.34;;;13.25;41.31
5380;BME280;2713;42.680;23.310;2023-02-18T09:44:44;95724.00;;;13.07;40.62
5380;BME280;2713;42.680;23.310;2023-02-18T09:47:16;95729.50;;;13.12;40.94
5380;BME280;2713;42.680;23.310;2023-02-18T09:49:47;95731.06;;;13.21;40.46
5380;BME280;2713;42.680;23.310;2023-02-18T09:52:20;95734.75;;;13.41;40.66
5380;BME280;2713;42.680;23.310;2023-02-18T09:54:48;95734.03;;;13.47;39.69
5380;BME280;2713;42.680;23.310;2023-02-18T09:57:22;95726.94;;;13.41;40.28
5380;BME280;2713;42.680;23.310;2023-02-18T09:59:56;95721.16;;;13.31;40.73
5380;BME280;2713;42.680;23.310;2023-02-18T10:02:25;95720.44;;;13.37;39.94
5380;BME280;2713;42.680;23.310;2023-02-18T10:04:54;95718.00;;;13.36;39.78
5380;BME280;2713;42.680;23.310;2023-02-18T10:07:25;95719.09;;;13.56;39.66
5380;BME280;2713;42.680;23.310;2023-02-18T10:09:54;95721.50;;;13.57;39.07
5380;BME280;2713;42.680;23.310;2023-02-18T10:12:23;95704.13;;;13.64;39.82
5380;BME280;2713;42.680;23.310;2023-02-18T10:14:52;95708.59;;;13.85;39.07
5380;BME280;2713;42.680;23.310;2023-02-18T10:17:21;95701.84;;;14.12;38.23
5380;BME280;2713;42.680;23.310;2023-02-18T10:19:51;95699.00;;;14.28;37.65
5380;BME280;2713;42.680;23.310;2023-02-18T10:22:19;95702.56;;;14.20;37.95
5380;BME280;2713;42.680;23.310;2023-02-18T10:24:51;95698.47;;;14.54;37.52
5380;BME280;2713;42.680;23.310;2023-02-18T10:27:23;95693.19;;;14.47;37.48
5380;BME280;2713;42.680;23.310;2023-02-18T10:29:50;95690.81;;;14.52;37.38
5380;BME280;2713;42.680;23.310;2023-02-18T10:32:22;95685.91;;;14.28;37.65
5380;BME280;2713;42.680;23.310;2023-02-18T10:34:52;95681.75;;;14.12;37.99
5380;BME280;2713;42.680;23.310;2023-02-18T10:37:44;95673.44;;;14.23;37.52
5380;BME280;2713;42.680;23.310;2023-02-18T10:40:22;95674.78;;;14.34;37.07
5380;BME280;2713;42.680;23.310;2023-02-18T10:43:01;95666.59;;;14.44;36.90
5380;BME280;2713;42.680;23.310;2023-02-18T10:45:37;95665.91;;;14.56;36.44
5380;BME280;2713;42.680;23.310;2023-02-18T10:50:57;95657.63;;;14.53;37.35
5380;BME280;2713;42.680;23.310;2023-02-18T10:53:30;95650.94;;;14.71;36.94
5380;BME280;2713;42.680;23.310;2023-02-18T10:56:00;95654.28;;;14.93;36.43
5380;BME280;2713;42.680;23.310;2023-02-18T10:58:31;95648.31;;;14.99;36.33
5380;BME280;2713;42.680;23.310;2023-02-18T11:01:00;95642.72;;;15.09;35.18
5380;BME280;2713;42.680;23.310;2023-02-18T11:03:39;95638.72;;;15.13;34.71
5380;BME280;2713;42.680;23.310;2023-02-18T11:06:15;95622.81;;;15.14;34.64
5380;BME280;2713;42.680;23.310;2023-02-18T11:08:46;95628.31;;;15.26;34.44
5380;BME280;2713;42.680;23.310;2023-02-18T11:11:16;95625.06;;;15.24;34.15
5380;BME280;2713;42.680;23.310;2023-02-18T11:13:44;95619.69;;;15.32;34.56
5380;BME280;2713;42.680;23.310;2023-02-18T11:16:20;95623.31;;;15.38;33.84
5380;BME280;2713;42.680;23.310;2023-02-18T11:18:48;95616.06;;;15.33;32.92
5380;BME280;2713;42.680;23.310;2023-02-18T11:21:21;95606.00;;;15.37;33.66
5380;BME280;2713;42.680;23.310;2023-02-18T11:23:53;95605.63;;;15.46;33.23
5380;BME280;2713;42.680;23.310;2023-02-18T11:26:26;95591.94;;;15.44;32.55
5380;BME280;2713;42.680;23.310;2023-02-18T11:28:57;95593.78;;;15.50;32.74
5380;BME280;2713;42.680;23.310;2023-02-18T11:31:41;95583.94;;;15.59;32.11
5380;BME280;2713;42.680;23.310;2023-02-18T11:34:15;95574.28;;;15.72;32.17
5380;BME280;2713;42.680;23.310;2023-02-18T11:36:42;95559.81;;;15.90;31.87
5380;BME280;2713;42.680;23.310;2023-02-18T11:39:18;95557.41;;;15.95;31.83
5380;BME280;2713;42.680;23.310;2023-02-18T11:41:53;95556.00;;;15.92;31.89
5380;BME280;2713;42.680;23.310;2023-02-18T11:44:26;95542.91;;;15.99;30.26
5380;BME280;2713;42.680;23.310;2023-02-18T11:46:59;95548.97;;;16.12;29.97
5380;BME280;2713;42.680;23.310;2023-02-18T11:49:27;95540.47;;;16.43;29.19
5380;BME280;2713;42.680;23.310;2023-02-18T11:52:03;95537.84;;;16.50;28.82
5380;BME280;2713;42.680;23.310;2023-02-18T11:54:31;95536.63;;;16.65;29.23
5380;BME280;2713;42.680;23.310;2023-02-18T11:57:03;95533.56;;;16.88;28.94
5380;BME280;2713;42.680;23.310;2023-02-18T11:59:33;95514.16;;;16.89;28.77
5380;BME280;2713;42.680;23.310;2023-02-18T12:02:23;95518.38;;;16.97;28.89
5380;BME280;2713;42.680;23.310;2023-02-18T12:04:57;95525.41;;;17.03;28.84
5380;BME280;2713;42.680;23.310;2023-02-18T12:07:28;95508.66;;;17.04;28.76
5380;BME280;2713;42.680;23.310;2023-02-18T12:09:58;95506.25;;;16.89;29.04
5380;BME280;2713;42.680;23.310;2023-02-18T12:12:30;95508.09;;;16.89;29.24
5380;BME280;2713;42.680;23.310;2023-02-18T12:14:59;95514.97;;;16.83;29.50
5380;BME280;2713;42.680;23.310;2023-02-18T12:17:39;95516.56;;;16.97;29.41
5380;BME280;2713;42.680;23.310;2023-02-18T12:20:25;95521.59;;;16.92;29.88
5380;BME280;2713;42.680;23.310;2023-02-18T12:23:03;95501.66;;;16.85;30.76
5380;BME280;2713;42.680;23.310;2023-02-18T12:25:39;95517.41;;;16.78;30.67
5380;BME280;2713;42.680;23.310;2023-02-18T12:28:32;95512.56;;;16.88;30.36
5380;BME280;2713;42.680;23.310;2023-02-18T12:31:25;95507.44;;;17.00;30.81
5380;BME280;2713;42.680;23.310;2023-02-18T12:34:10;95498.16;;;16.97;31.03
5380;BME280;2713;42.680;23.310;2023-02-18T12:36:53;95484.22;;;16.97;31.30
5380;BME280;2713;42.680;23.310;2023-02-18T12:39:31;95476.16;;;16.98;30.87
5380;BME280;2713;42.680;23.310;2023-02-18T12:42:17;95479.63;;;16.86;31.51
5380;BME280;2713;42.680;23.310;2023-02-18T12:45:01;95479.84;;;16.84;31.32
5380;BME280;2713;42.680;23.310;2023-02-18T12:50:37;95463.69;;;16.81;31.37
5380;BME280;2713;42.680;23.310;2023-02-18T12:53:21;95465.31;;;16.75;31.18
5380;BME280;2713;42.680;23.310;2023-02-18T12:56:02;95458.06;;;16.70;31.45
5380;BME280;2713;42.680;23.310;2023-02-18T12:58:42;95460.44;;;16.79;31.72
5380;BME280;2713;42.680;23.310;2023-02-18T13:01:32;95467.13;;;16.81;31.54
5380;BME280;2713;42.680;23.310;2023-02-18T13:04:20;95464.09;;;16.78;31.50
5380;BME280;2713;42.680;23.310;2023-02-18T13:07:09;95466.91;;;16.83;31.49
5380;BME280;2713;42.680;23.310;2023-02-18T13:09:49;95465.69;;;16.79;31.75
5380;BME280;2713;42.680;23.310;2023-02-18T13:12:21;95473.34;;;16.87;32.59
5380;BME280;2713;42.680;23.310;2023-02-18T13:14:58;95467.66;;;16.96;31.62
5380;BME280;2713;42.680;23.310;2023-02-18T13:17:33;95470.09;;;16.98;31.24
5380;BME280;2713;42.680;23.310;2023-02-18T13:20:04;95469.09;;;16.92;31.10
5380;BME280;2713;42.680;23.310;2023-02-18T13:22:32;95466.47;;;16.92;31.31
5380;BME280;2713;42.680;23.310;2023-02-18T13:24:59;95472.09;;;16.96;31.45
5380;BME280;2713;42.680;23.310;2023-02-18T13:27:31;95467.03;;;17.01;31.32
5380;BME280;2713;42.680;23.310;2023-02-18T13:30:15;95481.03;;;16.88;32.05
5380;BME280;2713;42.680;23.310;2023-02-18T13:32:53;95466.94;;;16.69;32.96
5380;BME280;2713;42.680;23.310;2023-02-18T13:35:28;95457.28;;;16.50;33.32
5380;BME280;2713;42.680;23.310;2023-02-18T13:38:09;95464.97;;;16.58;33.59
5380;BME280;2713;42.680;23.310;2023-02-18T13:40:40;95467.41;;;16.40;34.23
5380;BME280;2713;42.680;23.310;2023-02-18T13:43:19;95474.88;;;16.43;34.40
5380;BME280;2713;42.680;23.310;2023-02-18T13:46:07;95473.84;;;16.44;34.58
5380;BME280;2713;42.680;23.310;2023-02-18T13:48:41;95471.63;;;16.41;35.01
5380;BME280;2713;42.680;23.310;2023-02-18T13:51:11;95467.41;;;16.40;34.67